VAM | Vabird-VBD

Virtual Vabird! Aerolínea Virtual de habla hispana, desde 2011




 INFORMACIÓN METAR y TAF
METAR FOR YBRM
ADDS - METARS form results

(1441 UTC 08 March 2021)
Data provider http://aviationweather.gov/metar/data/
 
METAR text: YBRM 081430Z AUTO 29010KT 9999 // NCD 29/25 Q1008 RF00.0/000.0
Conditions at: YBRM (BROOME AIRPORT , AU) observed 1430 UTC 08 March 2021
Temperature: 29.0°C (84°F)
Dewpoint: 25.0°C (77°F) [RH = 79%]
Pressure (altimeter): 29.76 inches Hg (1008.0 mb)
Winds: from the WNW (290 degrees) at 12 MPH (10 knots; 5.1 m/s)
Visibility: 6 or more miles (10+ km)
Ceiling: at least 12,000 feet AGL
Clouds: sky clear below 12,000 feet AGL
Weather: no significant weather observed at this time

METAR text: YBRM 081400Z AUTO 29009KT 9999 // NCD 29/25 Q1008
Conditions at: YBRM (BROOME AIRPORT , AU) observed 1400 UTC 08 March 2021
Temperature: 29.0°C (84°F)
Dewpoint: 25.0°C (77°F) [RH = 79%]
Pressure (altimeter): 29.76 inches Hg (1008.0 mb)
Winds: from the WNW (290 degrees) at 10 MPH (9 knots; 4.6 m/s)
Visibility: 6 or more miles (10+ km)
Ceiling: at least 12,000 feet AGL
Clouds: sky clear below 12,000 feet AGL
Weather: no significant weather observed at this time

Forecast for: YBRM (BROOME AIRPORT , AU)
Text: TAF YBRM 081125Z 0812/0912 27010KT 9999 SCT018
Forecast period: 1200 to 2300 UTC 08 March 2021
Forecast type: FROM: standard forecast or significant change
Winds: from the W (270 degrees) at 12 MPH (10 knots; 5.1 m/s)
Visibility: 6 or more miles (10+ km)
Ceiling: at least 12,000 feet AGL
Clouds: scattered clouds at 1800 feet AGL
Weather: no significant weather forecast for this period
Text: FM082300 23010KT 9999 SCT020
Forecast period: 2300 UTC 08 March 2021 to 0400 UTC 09 March 2021
Forecast type: FROM: standard forecast or significant change
Winds: from the SW (230 degrees) at 12 MPH (10 knots; 5.1 m/s)
Visibility: 6 or more miles (10+ km)
Ceiling: at least 12,000 feet AGL
Clouds: scattered clouds at 2000 feet AGL
Weather: no significant weather forecast for this period
Text: FM090400 26014KT 9999 FEW030
Forecast period: 0400 to 1000 UTC 09 March 2021
Forecast type: FROM: standard forecast or significant change
Winds: from the W (260 degrees) at 16 MPH (14 knots; 7.2 m/s)
Visibility: 6 or more miles (10+ km)
Ceiling: at least 12,000 feet AGL
Clouds: few clouds at 3000 feet AGL
Weather: no significant weather forecast for this period
Text: FM091000 26010KT 9999 SCT018
Forecast period: 1000 to 1200 UTC 09 March 2021
Forecast type: FROM: standard forecast or significant change
Winds: from the W (260 degrees) at 12 MPH (10 knots; 5.1 m/s)
Visibility: 6 or more miles (10+ km)
Ceiling: at least 12,000 feet AGL
Clouds: scattered clouds at 1800 feet AGL
Weather: no significant weather forecast for this period

 MAPA DE AEROPUERTO

 INFORMACIÓN DE PISTA